sensor_id;sensor_type;location;lat;lon;timestamp;temperature;humidity
35970;DHT22;22448;51.298;6.430;2024-03-08T00:02:17;1.80;99.90
35970;DHT22;22448;51.298;6.430;2024-03-08T00:04:44;1.80;99.90
35970;DHT22;22448;51.298;6.430;2024-03-08T00:07:12;1.70;99.90
35970;DHT22;22448;51.298;6.430;2024-03-08T00:09:40;1.70;99.90
35970;DHT22;22448;51.298;6.430;2024-03-08T00:12:07;1.60;99.90
35970;DHT22;22448;51.298;6.430;2024-03-08T00:14:35;1.60;99.90
35970;DHT22;22448;51.298;6.430;2024-03-08T00:17:04;1.60;99.90
35970;DHT22;22448;51.298;6.430;2024-03-08T00:19:31;1.50;99.90
35970;DHT22;22448;51.298;6.430;2024-03-08T00:21:58;1.40;99.90
35970;DHT22;22448;51.298;6.430;2024-03-08T00:24:25;1.40;99.90
35970;DHT22;22448;51.298;6.430;2024-03-08T00:26:52;1.40;99.90
35970;DHT22;22448;51.298;6.430;2024-03-08T00:29:21;1.40;99.90
35970;DHT22;22448;51.298;6.430;2024-03-08T00:31:49;1.30;99.90
35970;DHT22;22448;51.298;6.430;2024-03-08T00:34:16;1.40;99.90
35970;DHT22;22448;51.298;6.430;2024-03-08T00:36:43;1.30;99.90
35970;DHT22;22448;51.298;6.430;2024-03-08T00:39:10;1.40;99.90
35970;DHT22;22448;51.298;6.430;2024-03-08T00:41:39;1.40;99.90
35970;DHT22;22448;51.298;6.430;2024-03-08T00:44:06;1.40;99.90
35970;DHT22;22448;51.298;6.430;2024-03-08T00:46:33;1.40;99.90
35970;DHT22;22448;51.298;6.430;2024-03-08T00:49:00;1.50;99.90
35970;DHT22;22448;51.298;6.430;2024-03-08T00:51:28;1.50;99.90
35970;DHT22;22448;51.298;6.430;2024-03-08T00:53:55;1.40;99.90
35970;DHT22;22448;51.298;6.430;2024-03-08T00:56:22;1.50;99.90
35970;DHT22;22448;51.298;6.430;2024-03-08T00:58:50;1.50;99.90
35970;DHT22;22448;51.298;6.430;2024-03-08T01:01:19;1.50;99.90
35970;DHT22;22448;51.298;6.430;2024-03-08T01:03:46;1.40;99.90
35970;DHT22;22448;51.298;6.430;2024-03-08T01:06:13;1.40;99.90
35970;DHT22;22448;51.298;6.430;2024-03-08T01:08:40;1.30;99.90
35970;DHT22;22448;51.298;6.430;2024-03-08T01:11:09;1.30;99.90
35970;DHT22;22448;51.298;6.430;2024-03-08T01:13:36;1.20;99.90
35970;DHT22;22448;51.298;6.430;2024-03-08T01:16:03;1.20;99.90
35970;DHT22;22448;51.298;6.430;2024-03-08T01:18:31;1.20;99.90
35970;DHT22;22448;51.298;6.430;2024-03-08T01:20:58;1.10;99.90
35970;DHT22;22448;51.298;6.430;2024-03-08T01:23:25;1.10;99.90
35970;DHT22;22448;51.298;6.430;2024-03-08T01:25:52;1.00;99.90
35970;DHT22;22448;51.298;6.430;2024-03-08T01:28:25;1.10;99.90
35970;DHT22;22448;51.298;6.430;2024-03-08T01:30:52;1.00;99.90
35970;DHT22;22448;51.298;6.430;2024-03-08T01:33:23;1.00;99.90
35970;DHT22;22448;51.298;6.430;2024-03-08T01:35:53;1.00;99.90
35970;DHT22;22448;51.298;6.430;2024-03-08T01:38:21;1.00;99.90
35970;DHT22;22448;51.298;6.430;2024-03-08T01:40:49;1.00;99.90
35970;DHT22;22448;51.298;6.430;2024-03-08T01:43:18;0.90;99.90
35970;DHT22;22448;51.298;6.430;2024-03-08T01:45:45;0.90;99.90
35970;DHT22;22448;51.298;6.430;2024-03-08T01:48:12;0.90;99.90
35970;DHT22;22448;51.298;6.430;2024-03-08T01:50:42;1.00;99.90
35970;DHT22;22448;51.298;6.430;2024-03-08T01:53:09;1.00;99.90
35970;DHT22;22448;51.298;6.430;2024-03-08T01:55:39;0.90;99.90
35970;DHT22;22448;51.298;6.430;2024-03-08T01:58:06;0.90;99.90
35970;DHT22;22448;51.298;6.430;2024-03-08T02:00:36;0.90;99.90
35970;DHT22;22448;51.298;6.430;2024-03-08T02:03:07;0.90;99.90
35970;DHT22;22448;51.298;6.430;2024-03-08T02:05:35;0.90;99.90
35970;DHT22;22448;51.298;6.430;2024-03-08T02:08:03;0.90;99.90
35970;DHT22;22448;51.298;6.430;2024-03-08T02:10:30;0.90;99.90
35970;DHT22;22448;51.298;6.430;2024-03-08T02:12:57;1.00;99.90
35970;DHT22;22448;51.298;6.430;2024-03-08T02:15:25;1.00;99.90
35970;DHT22;22448;51.298;6.430;2024-03-08T02:17:52;1.00;99.90
35970;DHT22;22448;51.298;6.430;2024-03-08T02:20:20;1.00;99.90
35970;DHT22;22448;51.298;6.430;2024-03-08T02:22:48;1.00;99.90
35970;DHT22;22448;51.298;6.430;2024-03-08T02:25:16;1.00;99.90
35970;DHT22;22448;51.298;6.430;2024-03-08T02:27:44;1.00;99.90
35970;DHT22;22448;51.298;6.430;2024-03-08T02:30:11;0.90;99.90
35970;DHT22;22448;51.298;6.430;2024-03-08T02:32:39;0.90;99.90
35970;DHT22;22448;51.298;6.430;2024-03-08T02:35:06;0.90;99.90
35970;DHT22;22448;51.298;6.430;2024-03-08T02:37:34;0.80;99.90
35970;DHT22;22448;51.298;6.430;2024-03-08T02:40:01;0.80;99.90
35970;DHT22;22448;51.298;6.430;2024-03-08T02:42:28;0.80;99.90
35970;DHT22;22448;51.298;6.430;2024-03-08T02:44:55;0.70;99.90
35970;DHT22;22448;51.298;6.430;2024-03-08T02:47:22;0.70;99.90
35970;DHT22;22448;51.298;6.430;2024-03-08T02:49:53;0.70;99.90
35970;DHT22;22448;51.298;6.430;2024-03-08T02:52:20;0.70;99.90
35970;DHT22;22448;51.298;6.430;2024-03-08T02:54:48;0.70;99.90
35970;DHT22;22448;51.298;6.430;2024-03-08T02:57:15;0.70;99.90
35970;DHT22;22448;51.298;6.430;2024-03-08T02:59:42;0.70;99.90
35970;DHT22;22448;51.298;6.430;2024-03-08T03:02:09;0.60;99.90
35970;DHT22;22448;51.298;6.430;2024-03-08T03:04:40;0.50;99.90
35970;DHT22;22448;51.298;6.430;2024-03-08T03:07:07;0.50;99.90
35970;DHT22;22448;51.298;6.430;2024-03-08T03:09:34;0.40;99.90
35970;DHT22;22448;51.298;6.430;2024-03-08T03:12:02;0.40;99.90
35970;DHT22;22448;51.298;6.430;2024-03-08T03:14:29;0.40;99.90
35970;DHT22;22448;51.298;6.430;2024-03-08T03:16:57;0.40;99.90
35970;DHT22;22448;51.298;6.430;2024-03-08T03:19:24;0.30;99.90
35970;DHT22;22448;51.298;6.430;2024-03-08T03:21:51;0.30;99.90
35970;DHT22;22448;51.298;6.430;2024-03-08T03:24:19;0.30;99.90
35970;DHT22;22448;51.298;6.430;2024-03-08T03:26:48;0.30;99.90
35970;DHT22;22448;51.298;6.430;2024-03-08T03:29:16;0.40;99.90
35970;DHT22;22448;51.298;6.430;2024-03-08T03:31:43;0.50;99.90
35970;DHT22;22448;51.298;6.430;2024-03-08T03:34:13;0.50;99.90
35970;DHT22;22448;51.298;6.430;2024-03-08T03:36:40;0.60;99.90
35970;DHT22;22448;51.298;6.430;2024-03-08T03:39:09;0.70;99.90
35970;DHT22;22448;51.298;6.430;2024-03-08T03:41:43;0.60;99.90
35970;DHT22;22448;51.298;6.430;2024-03-08T03:44:13;0.60;99.90
35970;DHT22;22448;51.298;6.430;2024-03-08T03:46:43;0.60;99.90
35970;DHT22;22448;51.298;6.430;2024-03-08T03:49:13;0.60;99.90
35970;DHT22;22448;51.298;6.430;2024-03-08T03:51:41;0.60;99.90
35970;DHT22;22448;51.298;6.430;2024-03-08T03:54:08;0.50;99.90
35970;DHT22;22448;51.298;6.430;2024-03-08T03:56:35;0.50;99.90
35970;DHT22;22448;51.298;6.430;2024-03-08T03:59:02;0.50;99.90
35970;DHT22;22448;51.298;6.430;2024-03-08T04:01:30;0.50;99.90
35970;DHT22;22448;51.298;6.430;2024-03-08T04:03:57;0.40;99.90
35970;DHT22;22448;51.298;6.430;2024-03-08T04:06:24;0.30;99.90
35970;DHT22;22448;51.298;6.430;2024-03-08T04:08:51;0.20;99.90
35970;DHT22;22448;51.298;6.430;2024-03-08T04:11:18;0.10;99.90
35970;DHT22;22448;51.298;6.430;2024-03-08T04:13:45;0.10;99.90
35970;DHT22;22448;51.298;6.430;2024-03-08T04:16:12;0.10;99.90
35970;DHT22;22448;51.298;6.430;2024-03-08T04:18:39;0.10;99.90
35970;DHT22;22448;51.298;6.430;2024-03-08T04:21:07;0.00;99.90
35970;DHT22;22448;51.298;6.430;2024-03-08T04:23:35;-0.10;99.90
35970;DHT22;22448;51.298;6.430;2024-03-08T04:26:03;-0.10;99.90
35970;DHT22;22448;51.298;6.430;2024-03-08T04:28:31;-0.10;99.90
35970;DHT22;22448;51.298;6.430;2024-03-08T04:30:58;-0.10;99.90
35970;DHT22;22448;51.298;6.430;2024-03-08T04:33:27;0.00;99.90
35970;DHT22;22448;51.298;6.430;2024-03-08T04:35:55;-0.10;99.90
35970;DHT22;22448;51.298;6.430;2024-03-08T04:38:22;-0.10;99.90
35970;DHT22;22448;51.298;6.430;2024-03-08T04:40:49;-0.10;99.90
35970;DHT22;22448;51.298;6.430;2024-03-08T04:43:17;-0.10;99.90
35970;DHT22;22448;51.298;6.430;2024-03-08T04:45:45;-0.10;99.90
35970;DHT22;22448;51.298;6.430;2024-03-08T04:48:12;-0.10;99.90
35970;DHT22;22448;51.298;6.430;2024-03-08T04:50:40;-0.10;99.90
35970;DHT22;22448;51.298;6.430;2024-03-08T04:53:07;-0.10;99.90
35970;DHT22;22448;51.298;6.430;2024-03-08T04:55:35;-0.10;99.90
35970;DHT22;22448;51.298;6.430;2024-03-08T04:58:02;0.00;99.90
35970;DHT22;22448;51.298;6.430;2024-03-08T05:00:31;0.00;99.90
35970;DHT22;22448;51.298;6.430;2024-03-08T05:02:59;0.00;99.90
35970;DHT22;22448;51.298;6.430;2024-03-08T05:05:26;0.00;99.90
35970;DHT22;22448;51.298;6.430;2024-03-08T05:07:55;0.10;99.90
35970;DHT22;22448;51.298;6.430;2024-03-08T05:10:22;0.10;99.90
35970;DHT22;22448;51.298;6.430;2024-03-08T05:12:49;0.10;99.90
35970;DHT22;22448;51.298;6.430;2024-03-08T05:15:18;0.10;99.90
35970;DHT22;22448;51.298;6.430;2024-03-08T05:17:47;0.00;99.90
35970;DHT22;22448;51.298;6.430;2024-03-08T05:20:15;0.00;99.90
35970;DHT22;22448;51.298;6.430;2024-03-08T05:22:44;0.00;99.90
35970;DHT22;22448;51.298;6.430;2024-03-08T05:25:11;-0.10;99.90
35970;DHT22;22448;51.298;6.430;2024-03-08T05:27:39;-0.10;99.90
35970;DHT22;22448;51.298;6.430;2024-03-08T05:30:06;-0.10;99.90
35970;DHT22;22448;51.298;6.430;2024-03-08T05:32:34;-0.20;99.90
35970;DHT22;22448;51.298;6.430;2024-03-08T05:35:01;-0.20;99.90
35970;DHT22;22448;51.298;6.430;2024-03-08T05:37:29;-0.20;99.90
35970;DHT22;22448;51.298;6.430;2024-03-08T05:39:58;-0.20;99.90
35970;DHT22;22448;51.298;6.430;2024-03-08T05:42:25;-0.20;99.90
35970;DHT22;22448;51.298;6.430;2024-03-08T05:44:52;-0.20;99.90
35970;DHT22;22448;51.298;6.430;2024-03-08T05:47:20;-0.30;99.90
35970;DHT22;22448;51.298;6.430;2024-03-08T05:49:47;-0.30;99.90
35970;DHT22;22448;51.298;6.430;2024-03-08T05:52:14;-0.30;99.90
35970;DHT22;22448;51.298;6.430;2024-03-08T05:54:42;-0.30;99.90
35970;DHT22;22448;51.298;6.430;2024-03-08T05:57:10;-0.40;99.90
35970;DHT22;22448;51.298;6.430;2024-03-08T05:59:37;-0.30;99.90
35970;DHT22;22448;51.298;6.430;2024-03-08T06:02:05;-0.20;99.90
35970;DHT22;22448;51.298;6.430;2024-03-08T06:04:32;-0.20;99.90
35970;DHT22;22448;51.298;6.430;2024-03-08T06:06:59;-0.20;99.90
35970;DHT22;22448;51.298;6.430;2024-03-08T06:09:26;-0.20;99.90
35970;DHT22;22448;51.298;6.430;2024-03-08T06:11:53;-0.20;99.90
35970;DHT22;22448;51.298;6.430;2024-03-08T06:14:21;-0.20;99.90
35970;DHT22;22448;51.298;6.430;2024-03-08T06:16:48;-0.10;99.90
35970;DHT22;22448;51.298;6.430;2024-03-08T06:19:17;0.00;99.90
35970;DHT22;22448;51.298;6.430;2024-03-08T06:21:44;0.00;99.90
35970;DHT22;22448;51.298;6.430;2024-03-08T06:24:12;0.20;99.90
35970;DHT22;22448;51.298;6.430;2024-03-08T06:26:39;0.50;99.90
35970;DHT22;22448;51.298;6.430;2024-03-08T06:29:07;0.90;99.90
35970;DHT22;22448;51.298;6.430;2024-03-08T06:31:34;1.40;99.90
35970;DHT22;22448;51.298;6.430;2024-03-08T06:34:06;1.50;99.90
35970;DHT22;22448;51.298;6.430;2024-03-08T06:36:35;1.40;99.90
35970;DHT22;22448;51.298;6.430;2024-03-08T06:39:02;1.20;99.90
35970;DHT22;22448;51.298;6.430;2024-03-08T06:41:36;1.10;99.90
35970;DHT22;22448;51.298;6.430;2024-03-08T06:44:04;1.00;99.90
35970;DHT22;22448;51.298;6.430;2024-03-08T06:46:31;1.00;99.90
35970;DHT22;22448;51.298;6.430;2024-03-08T06:48:58;1.00;99.90
35970;DHT22;22448;51.298;6.430;2024-03-08T06:51:25;1.10;99.90
35970;DHT22;22448;51.298;6.430;2024-03-08T06:53:52;1.10;99.90
35970;DHT22;22448;51.298;6.430;2024-03-08T06:56:19;1.20;99.90
35970;DHT22;22448;51.298;6.430;2024-03-08T06:58:46;1.20;99.90
35970;DHT22;22448;51.298;6.430;2024-03-08T07:01:14;1.30;99.90
35970;DHT22;22448;51.298;6.430;2024-03-08T07:03:42;1.40;99.90
35970;DHT22;22448;51.298;6.430;2024-03-08T07:06:12;1.50;99.90
35970;DHT22;22448;51.298;6.430;2024-03-08T07:08:39;1.70;99.90
35970;DHT22;22448;51.298;6.430;2024-03-08T07:11:06;2.30;99.90
35970;DHT22;22448;51.298;6.430;2024-03-08T07:13:34;3.10;99.90
35970;DHT22;22448;51.298;6.430;2024-03-08T07:16:01;4.00;99.90
35970;DHT22;22448;51.298;6.430;2024-03-08T07:18:28;5.30;99.90
35970;DHT22;22448;51.298;6.430;2024-03-08T07:20:57;6.00;99.90
35970;DHT22;22448;51.298;6.430;2024-03-08T07:23:25;6.40;99.90
35970;DHT22;22448;51.298;6.430;2024-03-08T07:26:10;6.40;99.90
35970;DHT22;22448;51.298;6.430;2024-03-08T07:28:37;6.80;99.90
35970;DHT22;22448;51.298;6.430;2024-03-08T07:31:05;6.40;99.90
35970;DHT22;22448;51.298;6.430;2024-03-08T07:33:44;6.20;99.90
35970;DHT22;22448;51.298;6.430;2024-03-08T07:36:11;6.50;99.90
35970;DHT22;22448;51.298;6.430;2024-03-08T07:38:39;7.30;99.90
35970;DHT22;22448;51.298;6.430;2024-03-08T07:41:06;7.50;99.90
35970;DHT22;22448;51.298;6.430;2024-03-08T07:43:33;7.40;99.90
35970;DHT22;22448;51.298;6.430;2024-03-08T07:46:00;7.40;99.90
35970;DHT22;22448;51.298;6.430;2024-03-08T07:48:27;7.00;99.90
35970;DHT22;22448;51.298;6.430;2024-03-08T07:50:55;7.00;99.90
35970;DHT22;22448;51.298;6.430;2024-03-08T07:53:22;6.40;99.90
35970;DHT22;22448;51.298;6.430;2024-03-08T07:55:51;7.00;99.90
35970;DHT22;22448;51.298;6.430;2024-03-08T07:58:18;7.40;99.90
35970;DHT22;22448;51.298;6.430;2024-03-08T08:00:45;8.70;99.90
35970;DHT22;22448;51.298;6.430;2024-03-08T08:03:13;9.00;99.90
35970;DHT22;22448;51.298;6.430;2024-03-08T08:05:40;7.70;99.90
35970;DHT22;22448;51.298;6.430;2024-03-08T08:08:08;7.00;99.90
35970;DHT22;22448;51.298;6.430;2024-03-08T08:10:37;6.40;99.90
35970;DHT22;22448;51.298;6.430;2024-03-08T08:13:04;6.50;99.90
35970;DHT22;22448;51.298;6.430;2024-03-08T08:15:32;6.60;99.90
35970;DHT22;22448;51.298;6.430;2024-03-08T08:18:02;6.90;99.90
35970;DHT22;22448;51.298;6.430;2024-03-08T08:20:32;7.00;99.90
35970;DHT22;22448;51.298;6.430;2024-03-08T08:22:59;7.40;99.90
35970;DHT22;22448;51.298;6.430;2024-03-08T08:25:26;7.40;99.90
35970;DHT22;22448;51.298;6.430;2024-03-08T08:27:54;8.00;99.90
35970;DHT22;22448;51.298;6.430;2024-03-08T08:30:21;8.20;99.90
35970;DHT22;22448;51.298;6.430;2024-03-08T08:32:48;8.10;99.90
35970;DHT22;22448;51.298;6.430;2024-03-08T08:35:16;8.20;99.90
35970;DHT22;22448;51.298;6.430;2024-03-08T08:37:45;8.40;99.90
35970;DHT22;22448;51.298;6.430;2024-03-08T08:40:12;8.90;99.90
35970;DHT22;22448;51.298;6.430;2024-03-08T08:42:44;8.70;99.90
35970;DHT22;22448;51.298;6.430;2024-03-08T08:45:15;8.20;99.90
35970;DHT22;22448;51.298;6.430;2024-03-08T08:47:48;8.00;99.90
35970;DHT22;22448;51.298;6.430;2024-03-08T08:50:16;8.30;99.90
35970;DHT22;22448;51.298;6.430;2024-03-08T08:52:49;8.30;99.90
35970;DHT22;22448;51.298;6.430;2024-03-08T08:55:17;8.60;99.90
35970;DHT22;22448;51.298;6.430;2024-03-08T08:57:47;8.60;99.90
35970;DHT22;22448;51.298;6.430;2024-03-08T09:00:16;8.80;99.90
35970;DHT22;22448;51.298;6.430;2024-03-08T09:02:43;8.80;99.90
35970;DHT22;22448;51.298;6.430;2024-03-08T09:05:10;9.00;99.90
35970;DHT22;22448;51.298;6.430;2024-03-08T09:07:44;8.90;99.90
35970;DHT22;22448;51.298;6.430;2024-03-08T09:10:13;8.70;99.90
35970;DHT22;22448;51.298;6.430;2024-03-08T09:12:44;8.90;99.90
35970;DHT22;22448;51.298;6.430;2024-03-08T09:15:12;8.80;99.90
35970;DHT22;22448;51.298;6.430;2024-03-08T09:17:40;8.90;99.90
35970;DHT22;22448;51.298;6.430;2024-03-08T09:20:09;9.10;99.90
35970;DHT22;22448;51.298;6.430;2024-03-08T09:22:37;9.20;99.90
35970;DHT22;22448;51.298;6.430;2024-03-08T09:25:04;9.20;99.90
35970;DHT22;22448;51.298;6.430;2024-03-08T09:27:32;9.20;99.90
35970;DHT22;22448;51.298;6.430;2024-03-08T09:30:04;9.10;99.90
35970;DHT22;22448;51.298;6.430;2024-03-08T09:32:34;9.20;99.90
35970;DHT22;22448;51.298;6.430;2024-03-08T09:35:01;9.30;99.90
35970;DHT22;22448;51.298;6.430;2024-03-08T09:37:29;9.20;99.90
35970;DHT22;22448;51.298;6.430;2024-03-08T09:39:56;9.10;99.90
35970;DHT22;22448;51.298;6.430;2024-03-08T09:42:24;9.00;99.90
35970;DHT22;22448;51.298;6.430;2024-03-08T09:44:52;9.00;99.90
35970;DHT22;22448;51.298;6.430;2024-03-08T09:47:22;8.90;99.90
35970;DHT22;22448;51.298;6.430;2024-03-08T09:49:52;8.70;99.90
35970;DHT22;22448;51.298;6.430;2024-03-08T09:52:20;8.70;99.90
35970;DHT22;22448;51.298;6.430;2024-03-08T09:54:47;8.70;99.90
35970;DHT22;22448;51.298;6.430;2024-03-08T09:57:16;8.80;99.90
35970;DHT22;22448;51.298;6.430;2024-03-08T09:59:47;8.80;99.90
35970;DHT22;22448;51.298;6.430;2024-03-08T10:02:16;8.70;99.90
35970;DHT22;22448;51.298;6.430;2024-03-08T10:04:44;8.60;99.90
35970;DHT22;22448;51.298;6.430;2024-03-08T10:07:14;8.70;99.90
35970;DHT22;22448;51.298;6.430;2024-03-08T10:09:41;8.80;99.90
35970;DHT22;22448;51.298;6.430;2024-03-08T10:12:18;8.80;99.90
35970;DHT22;22448;51.298;6.430;2024-03-08T10:14:46;8.90;99.90
35970;DHT22;22448;51.298;6.430;2024-03-08T10:17:13;9.10;99.90
35970;DHT22;22448;51.298;6.430;2024-03-08T10:19:49;9.00;99.90
35970;DHT22;22448;51.298;6.430;2024-03-08T10:22:18;9.00;99.90
35970;DHT22;22448;51.298;6.430;2024-03-08T10:24:46;9.10;99.90
35970;DHT22;22448;51.298;6.430;2024-03-08T10:27:16;9.20;99.90
35970;DHT22;22448;51.298;6.430;2024-03-08T10:29:49;9.20;99.90
35970;DHT22;22448;51.298;6.430;2024-03-08T10:32:18;9.30;99.90
35970;DHT22;22448;51.298;6.430;2024-03-08T10:34:46;9.40;99.90
35970;DHT22;22448;51.298;6.430;2024-03-08T10:37:15;9.50;99.90
35970;DHT22;22448;51.298;6.430;2024-03-08T10:40:02;9.30;99.90
35970;DHT22;22448;51.298;6.430;2024-03-08T10:43:03;9.10;99.90
35970;DHT22;22448;51.298;6.430;2024-03-08T10:45:38;9.30;99.90
35970;DHT22;22448;51.298;6.430;2024-03-08T10:48:28;9.40;99.90
35970;DHT22;22448;51.298;6.430;2024-03-08T10:51:04;9.60;99.90
35970;DHT22;22448;51.298;6.430;2024-03-08T10:53:34;9.60;99.90
35970;DHT22;22448;51.298;6.430;2024-03-08T10:56:01;9.60;99.90
35970;DHT22;22448;51.298;6.430;2024-03-08T10:58:29;9.50;99.90
35970;DHT22;22448;51.298;6.430;2024-03-08T11:00:57;9.50;99.90
35970;DHT22;22448;51.298;6.430;2024-03-08T11:03:45;9.40;99.90
35970;DHT22;22448;51.298;6.430;2024-03-08T11:06:17;9.50;99.90
35970;DHT22;22448;51.298;6.430;2024-03-08T11:08:46;9.60;99.90
35970;DHT22;22448;51.298;6.430;2024-03-08T11:11:32;9.70;99.90
35970;DHT22;22448;51.298;6.430;2024-03-08T11:14:02;9.70;99.90
35970;DHT22;22448;51.298;6.430;2024-03-08T11:19:01;9.90;99.90
35970;DHT22;22448;51.298;6.430;2024-03-08T11:21:32;10.00;99.90
35970;DHT22;22448;51.298;6.430;2024-03-08T11:26:29;10.20;99.90
35970;DHT22;22448;51.298;6.430;2024-03-08T11:32:11;10.20;99.90
35970;DHT22;22448;51.298;6.430;2024-03-08T11:34:43;10.20;99.90
35970;DHT22;22448;51.298;6.430;2024-03-08T11:37:12;10.30;99.90
35970;DHT22;22448;51.298;6.430;2024-03-08T11:39:45;10.50;99.90
35970;DHT22;22448;51.298;6.430;2024-03-08T11:42:14;10.60;99.90
35970;DHT22;22448;51.298;6.430;2024-03-08T11:44:47;10.50;99.90
35970;DHT22;22448;51.298;6.430;2024-03-08T11:47:15;10.60;99.90
35970;DHT22;22448;51.298;6.430;2024-03-08T11:49:44;10.50;99.90
35970;DHT22;22448;51.298;6.430;2024-03-08T11:52:12;10.50;99.90
35970;DHT22;22448;51.298;6.430;2024-03-08T11:54:47;10.60;99.90
35970;DHT22;22448;51.298;6.430;2024-03-08T11:57:22;10.70;99.90
35970;DHT22;22448;51.298;6.430;2024-03-08T11:59:53;10.60;99.90
35970;DHT22;22448;51.298;6.430;2024-03-08T12:02:27;10.60;99.90
35970;DHT22;22448;51.298;6.430;2024-03-08T12:04:59;10.70;99.90
35970;DHT22;22448;51.298;6.430;2024-03-08T12:07:30;10.80;99.90
35970;DHT22;22448;51.298;6.430;2024-03-08T12:10:20;11.10;99.90
35970;DHT22;22448;51.298;6.430;2024-03-08T12:12:57;11.00;99.90
35970;DHT22;22448;51.298;6.430;2024-03-08T12:15:27;11.00;99.90
35970;DHT22;22448;51.298;6.430;2024-03-08T12:17:55;11.20;99.90
35970;DHT22;22448;51.298;6.430;2024-03-08T12:20:25;11.10;99.70
35970;DHT22;22448;51.298;6.430;2024-03-08T12:22:54;11.10;99.60
35970;DHT22;22448;51.298;6.430;2024-03-08T12:25:27;11.30;99.90
35970;DHT22;22448;51.298;6.430;2024-03-08T12:28:07;11.40;99.50
35970;DHT22;22448;51.298;6.430;2024-03-08T12:30:51;11.30;99.50
35970;DHT22;22448;51.298;6.430;2024-03-08T12:33:20;11.30;99.50
35970;DHT22;22448;51.298;6.430;2024-03-08T12:35:56;11.20;99.40
35970;DHT22;22448;51.298;6.430;2024-03-08T12:38:28;11.20;99.70
35970;DHT22;22448;51.298;6.430;2024-03-08T12:40:55;11.10;99.80
35970;DHT22;22448;51.298;6.430;2024-03-08T12:43:24;11.00;99.50
35970;DHT22;22448;51.298;6.430;2024-03-08T12:45:51;11.00;99.80
35970;DHT22;22448;51.298;6.430;2024-03-08T12:48:19;11.00;99.90
35970;DHT22;22448;51.298;6.430;2024-03-08T12:50:47;10.90;99.90
35970;DHT22;22448;51.298;6.430;2024-03-08T12:53:15;11.00;99.90
35970;DHT22;22448;51.298;6.430;2024-03-08T12:55:42;11.00;99.90
35970;DHT22;22448;51.298;6.430;2024-03-08T12:58:09;11.10;99.40
35970;DHT22;22448;51.298;6.430;2024-03-08T13:00:36;11.10;99.30
35970;DHT22;22448;51.298;6.430;2024-03-08T13:03:03;11.20;99.90
35970;DHT22;22448;51.298;6.430;2024-03-08T13:05:33;11.20;99.20
35970;DHT22;22448;51.298;6.430;2024-03-08T13:07:59;11.20;99.60
35970;DHT22;22448;51.298;6.430;2024-03-08T13:10:27;11.20;99.00
35970;DHT22;22448;51.298;6.430;2024-03-08T13:12:54;11.20;99.40
35970;DHT22;22448;51.298;6.430;2024-03-08T13:15:21;11.30;98.80
35970;DHT22;22448;51.298;6.430;2024-03-08T13:17:48;11.40;99.00
35970;DHT22;22448;51.298;6.430;2024-03-08T13:20:16;11.50;99.40
35970;DHT22;22448;51.298;6.430;2024-03-08T13:22:57;11.40;98.90
35970;DHT22;22448;51.298;6.430;2024-03-08T13:25:26;11.40;99.10
35970;DHT22;22448;51.298;6.430;2024-03-08T13:27:53;11.50;99.00
35970;DHT22;22448;51.298;6.430;2024-03-08T13:30:23;11.50;99.30
35970;DHT22;22448;51.298;6.430;2024-03-08T13:32:53;11.50;98.80
35970;DHT22;22448;51.298;6.430;2024-03-08T13:35:23;11.40;98.50
35970;DHT22;22448;51.298;6.430;2024-03-08T13:37:54;11.40;98.90
35970;DHT22;22448;51.298;6.430;2024-03-08T13:40:21;11.40;99.10
35970;DHT22;22448;51.298;6.430;2024-03-08T13:42:48;11.50;99.10
35970;DHT22;22448;51.298;6.430;2024-03-08T13:45:18;11.50;98.90
35970;DHT22;22448;51.298;6.430;2024-03-08T13:47:50;11.60;98.40
35970;DHT22;22448;51.298;6.430;2024-03-08T13:50:21;11.70;99.00
35970;DHT22;22448;51.298;6.430;2024-03-08T13:52:49;11.50;98.50
35970;DHT22;22448;51.298;6.430;2024-03-08T13:55:24;11.40;98.60
35970;DHT22;22448;51.298;6.430;2024-03-08T13:57:55;11.50;99.00
35970;DHT22;22448;51.298;6.430;2024-03-08T14:00:24;11.50;98.80
35970;DHT22;22448;51.298;6.430;2024-03-08T14:02:54;11.60;98.90
35970;DHT22;22448;51.298;6.430;2024-03-08T14:05:21;11.60;98.90
35970;DHT22;22448;51.298;6.430;2024-03-08T14:07:49;11.50;99.00
35970;DHT22;22448;51.298;6.430;2024-03-08T14:10:17;11.60;98.70
35970;DHT22;22448;51.298;6.430;2024-03-08T14:12:48;11.60;98.00
35970;DHT22;22448;51.298;6.430;2024-03-08T14:15:15;11.60;98.20
35970;DHT22;22448;51.298;6.430;2024-03-08T14:17:43;11.70;98.10
35970;DHT22;22448;51.298;6.430;2024-03-08T14:20:13;11.60;97.90
35970;DHT22;22448;51.298;6.430;2024-03-08T14:22:40;11.60;98.00
35970;DHT22;22448;51.298;6.430;2024-03-08T14:25:07;11.60;98.30
35970;DHT22;22448;51.298;6.430;2024-03-08T14:27:45;11.50;98.70
35970;DHT22;22448;51.298;6.430;2024-03-08T14:30:13;11.50;98.10
35970;DHT22;22448;51.298;6.430;2024-03-08T14:32:40;11.40;97.80
35970;DHT22;22448;51.298;6.430;2024-03-08T14:35:08;11.50;98.50
35970;DHT22;22448;51.298;6.430;2024-03-08T14:37:38;11.50;98.20
35970;DHT22;22448;51.298;6.430;2024-03-08T14:40:06;11.60;98.30
35970;DHT22;22448;51.298;6.430;2024-03-08T14:42:33;11.60;98.20
35970;DHT22;22448;51.298;6.430;2024-03-08T14:44:59;11.70;98.10
35970;DHT22;22448;51.298;6.430;2024-03-08T14:47:27;11.70;98.00
35970;DHT22;22448;51.298;6.430;2024-03-08T14:49:55;11.70;98.20
35970;DHT22;22448;51.298;6.430;2024-03-08T14:52:22;11.70;98.10
35970;DHT22;22448;51.298;6.430;2024-03-08T14:54:55;11.70;98.40
35970;DHT22;22448;51.298;6.430;2024-03-08T14:57:25;11.70;98.30
35970;DHT22;22448;51.298;6.430;2024-03-08T14:59:52;11.70;97.90
35970;DHT22;22448;51.298;6.430;2024-03-08T15:02:19;11.50;97.90
35970;DHT22;22448;51.298;6.430;2024-03-08T15:04:47;11.50;97.80
35970;DHT22;22448;51.298;6.430;2024-03-08T15:07:24;11.40;97.90
35970;DHT22;22448;51.298;6.430;2024-03-08T15:09:57;11.40;98.30
35970;DHT22;22448;51.298;6.430;2024-03-08T15:12:24;11.30;98.20
35970;DHT22;22448;51.298;6.430;2024-03-08T15:14:53;11.30;98.30
35970;DHT22;22448;51.298;6.430;2024-03-08T15:17:22;11.30;98.20
35970;DHT22;22448;51.298;6.430;2024-03-08T15:19:49;11.30;98.20
35970;DHT22;22448;51.298;6.430;2024-03-08T15:22:17;11.40;97.70
35970;DHT22;22448;51.298;6.430;2024-03-08T15:24:45;11.40;97.80
35970;DHT22;22448;51.298;6.430;2024-03-08T15:27:12;11.30;98.20
35970;DHT22;22448;51.298;6.430;2024-03-08T15:29:39;11.30;98.50
35970;DHT22;22448;51.298;6.430;2024-03-08T15:32:07;11.20;98.60
35970;DHT22;22448;51.298;6.430;2024-03-08T15:34:37;11.20;98.30
35970;DHT22;22448;51.298;6.430;2024-03-08T15:37:05;11.10;98.40
35970;DHT22;22448;51.298;6.430;2024-03-08T15:39:33;11.00;98.30
35970;DHT22;22448;51.298;6.430;2024-03-08T15:42:01;11.00;98.70
35970;DHT22;22448;51.298;6.430;2024-03-08T15:44:28;10.90;98.70
35970;DHT22;22448;51.298;6.430;2024-03-08T15:46:56;10.90;98.80
35970;DHT22;22448;51.298;6.430;2024-03-08T15:49:24;10.90;98.80
35970;DHT22;22448;51.298;6.430;2024-03-08T15:51:53;10.90;99.10
35970;DHT22;22448;51.298;6.430;2024-03-08T15:54:21;10.90;99.30
35970;DHT22;22448;51.298;6.430;2024-03-08T15:56:48;10.80;99.80
35970;DHT22;22448;51.298;6.430;2024-03-08T15:59:15;10.70;99.90